Time;durP1;ratioP1;P1;durP2;ratioP2;P2;SDS_P1;SDS_P2;PMS_P1;PMS_P2;Temp;Humidity;BMP_temperature;BMP_pressure;BME280_temperature;BME280_humidity;BME280_pressure;Samples;Min_cycle;Max_cycle;Signal;HPM_P1;HPM_P2
2022/10/22 00:00:49;;;;;;;;;2.25;0.75;;;;;15.59;89.59;100716.78;4996320;28;59728;-76
2022/10/22 00:03:14;;;;;;;;;1.50;0.50;;;;;15.78;89.47;100737.97;4997846;28;49849;-76
2022/10/22 00:05:40;;;;;;;;;3.00;1.25;;;;;15.55;89.56;100701.81;5000344;28;49645;-76
2022/10/22 00:08:05;;;;;;;;;1.00;0.50;;;;;15.65;89.43;100729.16;5004568;28;49835;-76
2022/10/22 00:10:30;;;;;;;;;1.75;1.75;;;;;15.96;89.53;100780.31;5000507;28;49975;-77
2022/10/22 00:12:56;;;;;;;;;3.50;2.75;;;;;15.96;89.64;100786.50;5004546;28;50009;-77
2022/10/22 00:15:21;;;;;;;;;1.75;1.00;;;;;15.63;89.72;100757.38;4993724;28;49694;-77
2022/10/22 00:17:48;;;;;;;;;0.50;0.50;;;;;15.99;89.45;100791.78;4998440;28;50029;-77
2022/10/22 00:20:14;;;;;;;;;0.00;0.00;;;;;15.38;89.92;100728.25;5002559;28;49729;-77
2022/10/22 00:22:39;;;;;;;;;1.50;1.50;;;;;16.00;89.92;100800.59;5001668;28;49654;-77
2022/10/22 00:25:05;;;;;;;;;0.50;0.50;;;;;16.00;89.97;100814.72;5001259;28;49803;-77
2022/10/22 00:27:30;;;;;;;;;3.00;1.00;;;;;15.63;89.86;100749.44;4999214;28;49906;-78
2022/10/22 00:29:55;;;;;;;;;1.00;1.00;;;;;15.61;90.03;100754.72;5005642;28;49651;-77
2022/10/22 00:32:21;;;;;;;;;2.00;2.00;;;;;15.57;89.83;100750.31;5003336;28;65438;-79
2022/10/22 00:34:46;;;;;;;;;6.00;3.25;;;;;16.02;90.22;100815.63;4997532;28;49703;-78
2022/10/22 00:37:12;;;;;;;;;2.00;2.00;;;;;15.78;90.21;100775.91;5003228;28;49921;-78
2022/10/22 00:39:37;;;;;;;;;3.00;2.00;;;;;16.03;89.71;100813.84;4996244;28;49709;-78
2022/10/22 00:42:03;;;;;;;;;0.00;0.00;;;;;16.02;89.71;100820.91;5001670;28;49644;-78
2022/10/22 00:45:02;;;;;;;;;2.50;1.75;;;;;16.01;89.98;100829.72;4999667;28;49598;-79
2022/10/22 00:47:33;;;;;;;;;1.00;1.00;;;;;15.76;89.85;100784.75;5007831;28;49542;-78
2022/10/22 00:49:59;;;;;;;;;1.25;1.25;;;;;15.91;89.85;100814.72;5002512;28;49787;-79
2022/10/22 00:52:24;;;;;;;;;0.00;0.00;;;;;15.66;89.69;100787.38;5003304;28;49731;-78
2022/10/22 00:54:50;;;;;;;;;0.50;0.50;;;;;15.65;90.09;100771.50;5000709;28;49461;-77
2022/10/22 00:57:18;;;;;;;;;1.00;0.25;;;;;15.53;89.86;100752.94;5005971;28;49565;-78
2022/10/22 00:59:45;;;;;;;;;1.00;1.00;;;;;16.00;89.81;100842.97;5000761;28;49462;-78
2022/10/22 01:02:10;;;;;;;;;0.50;0.50;;;;;15.40;89.93;100742.34;5002703;28;49757;-78
2022/10/22 01:04:36;;;;;;;;;2.00;2.00;;;;;15.46;90.20;100767.94;5005208;28;49597;-78
2022/10/22 01:07:01;;;;;;;;;4.25;2.00;;;;;15.99;89.99;100859.75;5009382;28;49740;-78
2022/10/22 01:09:44;;;;;;;;;1.25;0.00;;;;;15.66;90.32;100805.91;5003631;28;49742;-78
2022/10/22 01:12:27;;;;;;;;;3.00;1.50;;;;;15.73;90.04;100833.28;5007225;28;49957;-76
2022/10/22 01:15:20;;;;;;;;;2.00;1.00;;;;;15.98;89.78;100879.16;5004983;28;49604;-76
2022/10/22 01:18:09;;;;;;;;;1.00;1.00;;;;;15.97;89.85;100886.22;5007533;28;49650;-75
2022/10/22 01:20:44;;;;;;;;;3.00;1.25;;;;;15.28;90.24;100775.84;5006605;28;49790;-76
2022/10/22 01:23:21;;;;;;;;;3.00;3.00;;;;;15.94;89.75;100896.81;5002810;28;49785;-76
2022/10/22 01:25:57;;;;;;;;;3.25;1.00;;;;;15.98;89.74;100903.88;5009221;28;49604;-76
2022/10/22 01:28:52;;;;;;;;;2.50;2.00;;;;;15.99;89.87;100899.47;4993440;28;49865;-76
2022/10/22 01:31:21;;;;;;;;;7.00;1.00;;;;;14.93;89.81;100752.84;4993573;28;49832;-76
2022/10/22 01:33:50;;;;;;;;;0.00;0.00;;;;;15.27;89.59;100790.84;4996673;28;49920;-76
2022/10/22 01:36:18;;;;;;;;;3.00;0.00;;;;;16.00;89.61;100899.44;5002746;28;49675;-77
2022/10/22 01:38:45;;;;;;;;;2.00;0.50;;;;;15.99;89.41;100892.41;5001869;28;49685;-76
2022/10/22 01:41:11;;;;;;;;;1.00;1.00;;;;;15.11;88.88;100791.66;4993190;28;49709;-76
2022/10/22 01:43:36;;;;;;;;;1.00;1.00;;;;;15.74;89.24;100865.03;5006600;28;49726;-76
2022/10/22 01:46:04;;;;;;;;;1.00;1.00;;;;;15.84;88.85;100871.22;4993177;28;49767;-76
2022/10/22 01:48:46;;;;;;;;;1.75;1.00;;;;;15.97;89.15;100890.63;4993905;28;49852;-76
2022/10/22 01:51:39;;;;;;;;;0.00;0.00;;;;;15.98;89.18;100895.94;4999307;28;49715;-76
2022/10/22 01:54:27;;;;;;;;;2.00;1.00;;;;;16.04;88.95;100897.72;5000908;28;50985;-77
2022/10/22 01:57:35;;;;;;;;;3.00;3.00;;;;;16.08;89.00;100891.53;5009436;28;49402;-77
2022/10/22 02:00:11;;;;;;;;;0.00;0.00;;;;;15.84;88.77;100839.44;4998572;28;49777;-77
2022/10/22 02:02:52;;;;;;;;;0.75;0.75;;;;;15.96;88.28;100871.22;5008397;28;49548;-76
2022/10/22 02:05:23;;;;;;;;;1.25;0.00;;;;;14.78;88.03;100668.25;4997931;28;49686;-76
2022/10/22 02:07:56;;;;;;;;;0.25;0.25;;;;;16.00;87.93;100880.03;4998256;28;49809;-76
2022/10/22 02:10:23;;;;;;;;;1.25;1.25;;;;;15.93;87.77;100839.47;5005695;28;49564;-76
2022/10/22 02:12:53;;;;;;;;;2.50;1.00;;;;;16.10;87.49;100863.25;4992214;28;49916;-77
2022/10/22 02:15:20;;;;;;;;;1.00;0.50;;;;;16.35;87.53;100890.63;5007436;28;50630;-76
2022/10/22 02:17:46;;;;;;;;;2.75;1.25;;;;;16.38;87.26;100901.22;5004597;28;49833;-76
2022/10/22 02:20:18;;;;;;;;;2.25;0.75;;;;;16.20;87.20;100867.66;5008551;28;49869;-76
2022/10/22 02:22:44;;;;;;;;;1.50;1.50;;;;;16.35;87.18;100890.63;5003893;28;50042;-76
2022/10/22 02:25:10;;;;;;;;;2.50;1.50;;;;;16.31;87.03;100883.59;5007832;28;49371;-76
2022/10/22 02:27:45;;;;;;;;;1.00;1.00;;;;;15.76;87.06;100793.56;5007017;28;49303;-76
2022/10/22 02:30:17;;;;;;;;;2.50;2.50;;;;;16.27;87.16;100914.47;5005204;28;50205;-76
2022/10/22 02:32:50;;;;;;;;;1.00;1.00;;;;;16.39;87.03;100896.81;5004851;28;49364;-76
2022/10/22 02:35:19;;;;;;;;;1.00;1.00;;;;;16.37;87.42;100899.47;5000281;28;50573;-76
2022/10/22 02:37:46;;;;;;;;;3.00;1.00;;;;;15.65;87.36;100780.34;5003606;28;49525;-76
2022/10/22 02:40:12;;;;;;;;;3.50;1.50;;;;;16.09;87.66;100876.50;5003058;28;49507;-76
2022/10/22 02:42:39;;;;;;;;;1.50;0.25;;;;;16.03;88.02;100878.28;5009399;28;49561;-75
2022/10/22 02:45:05;;;;;;;;;2.00;1.00;;;;;15.94;88.22;100875.63;5004994;28;50824;-76
2022/10/22 02:47:31;;;;;;;;;0.25;0.25;;;;;15.81;88.63;100871.19;5004361;28;49626;-76
2022/10/22 02:49:56;;;;;;;;;1.75;1.75;;;;;16.08;88.77;100923.28;5002329;28;49716;-76
2022/10/22 02:52:21;;;;;;;;;2.00;2.00;;;;;15.98;89.19;100919.75;5020836;28;49353;-76
2022/10/22 02:54:47;;;;;;;;;1.00;1.00;;;;;15.78;89.42;100894.13;4998333;28;49768;-77
2022/10/22 02:57:12;;;;;;;;;2.00;2.00;;;;;15.99;89.68;100940.06;5003073;28;49754;-77
2022/10/22 02:59:38;;;;;;;;;1.50;0.00;;;;;15.99;89.99;100945.34;4998163;28;49974;-77
2022/10/22 03:02:03;;;;;;;;;2.75;1.00;;;;;15.78;90.41;100925.91;5003350;28;49993;-77
2022/10/22 03:04:29;;;;;;;;;2.75;1.75;;;;;14.87;90.07;100797.78;5007551;28;49279;-78
2022/10/22 03:06:55;;;;;;;;;2.00;0.50;;;;;15.95;90.73;100940.94;4996659;28;49861;-77
2022/10/22 03:09:20;;;;;;;;;0.00;0.00;;;;;15.45;90.76;100854.34;5005548;28;49856;-78
2022/10/22 03:11:45;;;;;;;;;1.50;1.50;;;;;16.00;90.56;100962.13;5004847;28;50422;-78
2022/10/22 03:14:11;;;;;;;;;2.75;1.00;;;;;15.91;90.62;100941.81;4999018;28;49290;-77
2022/10/22 03:16:37;;;;;;;;;1.25;0.75;;;;;16.04;90.63;100950.66;4992643;28;50109;-77
2022/10/22 03:19:02;;;;;;;;;1.00;1.00;;;;;14.66;90.54;100728.94;4999923;28;49265;-77
2022/10/22 03:21:37;;;;;;;;;1.50;1.50;;;;;16.14;90.46;100964.81;5000018;28;49753;-77
2022/10/22 03:24:10;;;;;;;;;2.25;1.00;;;;;16.16;90.45;100979.81;4997940;28;51447;-78
2022/10/22 03:26:37;;;;;;;;;3.75;2.00;;;;;16.21;90.43;100966.56;5004969;28;49206;-77
2022/10/22 03:29:03;;;;;;;;;0.50;0.50;;;;;16.18;90.25;100962.16;4999920;28;49861;-77
2022/10/22 03:31:29;;;;;;;;;0.00;0.00;;;;;16.24;90.54;100975.41;5002377;28;49480;-77
2022/10/22 03:33:54;;;;;;;;;2.50;2.50;;;;;16.25;90.53;100984.25;5007985;28;49844;-79
2022/10/22 03:36:19;;;;;;;;;2.00;2.00;;;;;16.17;90.39;100959.50;5003312;28;49638;-78
2022/10/22 03:38:45;;;;;;;;;3.50;2.25;;;;;16.33;89.93;100984.25;4991213;28;49773;-77
2022/10/22 03:41:10;;;;;;;;;1.00;1.00;;;;;16.09;89.93;100940.94;4991347;28;50075;-76
2022/10/22 03:43:36;;;;;;;;;0.00;0.00;;;;;16.35;89.84;100977.19;5002780;28;49577;-76
2022/10/22 08:44:18;;;;;;;;;2.00;2.00;;;;;17.51;85.74;101226.50;6052768;23;46657;31
2022/10/22 08:47:05;;;;;;;;;3.00;1.50;;;;;17.51;85.09;101222.09;4941687;28;51389;-79
2022/10/22 08:49:37;;;;;;;;;3.25;2.00;;;;;16.84;85.19;101105.34;4894213;28;49904;-80
2022/10/22 08:52:13;;;;;;;;;2.00;1.50;;;;;17.58;85.28;101242.44;4903093;28;49736;-79
2022/10/22 08:54:57;;;;;;;;;3.00;2.00;;;;;17.64;85.05;101230.91;4916535;28;49967;-78
2022/10/22 08:57:52;;;;;;;;;1.25;1.25;;;;;17.66;84.68;101238.03;4909925;28;52058;-76
2022/10/22 09:00:33;;;;;;;;;4.75;3.75;;;;;16.76;84.36;101105.34;4909733;28;49782;-74
2022/10/22 09:03:30;;;;;;;;;0.75;0.50;;;;;16.38;84.16;101016.91;4907341;28;49856;-78
2022/10/22 09:06:10;;;;;;;;;1.00;1.00;;;;;17.77;84.60;101229.19;4914270;28;49801;-80
2022/10/22 09:08:38;;;;;;;;;2.50;2.00;;;;;16.92;83.98;101108.00;4911335;28;50837;-77
2022/10/22 09:11:16;;;;;;;;;1.25;1.25;;;;;17.87;84.53;101230.94;4914284;28;49917;-71
2022/10/22 09:13:44;;;;;;;;;2.50;2.00;;;;;17.58;83.62;101177.84;4901964;28;50003;-72
2022/10/22 09:16:41;;;;;;;;;3.00;2.00;;;;;17.88;84.02;101225.63;4896973;28;49746;-72
2022/10/22 09:19:39;;;;;;;;;4.00;2.00;;;;;17.97;83.59;101230.94;4879544;28;49992;-72
2022/10/22 09:22:23;;;;;;;;;1.75;1.75;;;;;18.05;83.26;101230.00;4900585;28;49537;-72
2022/10/22 09:24:56;;;;;;;;;1.75;1.75;;;;;17.72;83.18;101171.66;4908479;28;50025;-74
2022/10/22 09:27:27;;;;;;;;;3.75;2.25;;;;;17.67;83.51;101186.69;4894953;28;49959;-74
2022/10/22 09:29:52;;;;;;;;;6.00;2.00;;;;;17.65;83.72;101147.72;4896491;28;50538;-73
2022/10/22 09:32:18;;;;;;;;;2.25;1.50;;;;;18.20;83.11;101237.94;4896425;28;49790;-79
2022/10/22 09:34:45;;;;;;;;;1.00;1.00;;;;;17.97;82.54;101184.88;4925488;28;49947;-78
2022/10/22 09:37:11;;;;;;;;;1.25;1.00;;;;;18.06;82.99;101202.56;4914570;28;49685;-81
2022/10/22 09:39:38;;;;;;;;;3.00;2.00;;;;;18.13;82.74;101206.97;4912585;28;50158;-76
2022/10/22 09:42:05;;;;;;;;;2.00;2.00;;;;;17.69;82.04;101121.22;4900062;28;49721;-78
2022/10/22 09:44:36;;;;;;;;;1.75;1.75;;;;;18.10;82.59;101189.25;4915579;28;49787;-76
2022/10/22 09:47:06;;;;;;;;;1.00;1.00;;;;;18.21;81.43;101191.88;4934469;28;49894;-75
2022/10/22 09:49:35;;;;;;;;;1.75;0.50;;;;;18.49;81.41;101221.91;4928793;28;50615;-77
2022/10/22 09:52:02;;;;;;;;;2.75;0.50;;;;;17.26;80.89;101000.97;4920488;28;50169;-76
2022/10/22 09:54:33;;;;;;;;;2.25;1.00;;;;;18.57;80.48;101217.44;4927611;28;49894;-78
2022/10/22 09:57:20;;;;;;;;;1.25;1.25;;;;;18.60;80.46;101220.94;4916142;28;49910;-81
2022/10/22 09:59:52;;;;;;;;;1.00;1.00;;;;;18.32;80.22;101168.78;4915269;28;50911;-76
2022/10/22 10:02:21;;;;;;;;;2.50;1.50;;;;;18.65;79.95;101244.03;4915180;28;49691;-75
2022/10/22 10:04:52;;;;;;;;;0.00;0.00;;;;;18.24;80.35;101150.25;4918070;28;49791;-79
2022/10/22 10:07:24;;;;;;;;;1.00;1.00;;;;;18.53;80.48;101211.25;4927918;28;49856;-79
2022/10/22 10:09:51;;;;;;;;;1.00;1.00;;;;;18.70;79.89;101208.53;4933401;28;50617;-82
2022/10/22 10:12:35;;;;;;;;;1.50;1.50;;;;;18.73;80.19;101212.97;4933343;28;49671;-81
2022/10/22 10:15:26;;;;;;;;;2.50;2.00;;;;;17.53;79.62;101015.91;4922196;28;49768;-86
2022/10/22 10:18:20;;;;;;;;;3.50;2.50;;;;;18.80;79.72;101215.56;4917062;28;50108;-79
2022/10/22 16:09:58;;;;;;;;;2.00;1.75;;;;;18.96;71.14;101051.41;5124871;27;144091;-71
2022/10/22 16:12:24;;;;;;;;;1.50;1.50;;;;;18.92;70.84;101001.81;5130968;27;49645;-72
2022/10/22 16:14:49;;;;;;;;;1.00;1.00;;;;;19.04;70.75;101011.44;5129210;27;49618;-72
2022/10/22 16:17:15;;;;;;;;;5.25;3.00;;;;;19.09;71.13;100994.50;5131424;27;50404;-71
2022/10/22 16:19:41;;;;;;;;;5.50;4.00;;;;;19.32;71.03;101022.69;5128907;27;49674;-71
2022/10/22 16:22:09;;;;;;;;;2.50;2.50;;;;;19.31;70.55;101011.16;5132306;27;59465;-77
2022/10/22 16:24:34;;;;;;;;;2.75;1.50;;;;;19.29;70.49;101001.41;5123533;27;50143;-72
2022/10/22 16:26:59;;;;;;;;;2.50;2.50;;;;;19.47;70.67;101029.59;5128585;27;50069;-76
2022/10/22 16:29:25;;;;;;;;;2.25;0.50;;;;;19.50;71.42;101040.22;5131760;27;49828;-73
2022/10/22 16:31:50;;;;;;;;;5.25;2.00;;;;;19.26;70.95;100994.31;5132814;27;50344;-77
2022/10/22 16:34:15;;;;;;;;;3.00;1.25;;;;;19.52;71.11;101046.41;5137094;27;49824;-71
2022/10/22 16:36:41;;;;;;;;;1.25;0.50;;;;;19.52;71.44;101043.75;5135846;27;49886;-76
2022/10/22 16:39:07;;;;;;;;;2.50;1.75;;;;;19.39;70.67;101021.69;5127383;27;49795;-74
2022/10/22 16:41:35;;;;;;;;;4.25;2.75;;;;;19.49;71.32;101041.09;5128009;27;49855;-74
2022/10/22 16:44:06;;;;;;;;;1.50;1.50;;;;;19.29;71.14;101018.25;5145044;27;49372;-74
2022/10/22 16:46:33;;;;;;;;;4.00;4.00;;;;;19.39;71.84;101040.31;5142117;27;50529;-74
2022/10/22 16:48:58;;;;;;;;;3.50;2.00;;;;;19.40;72.03;101048.31;5139487;27;49723;-77
2022/10/22 16:51:26;;;;;;;;;4.00;4.00;;;;;19.37;72.18;101052.78;5139105;27;49727;-72
2022/10/22 16:53:52;;;;;;;;;4.00;4.00;;;;;19.32;72.44;101058.16;5132123;27;49983;-74
2022/10/22 16:56:18;;;;;;;;;3.00;3.00;;;;;19.12;73.94;101045.06;5136477;27;49939;-74
2022/10/22 16:58:49;;;;;;;;;2.25;2.25;;;;;19.20;74.06;101084.88;5144686;27;49442;-73
2022/10/22 17:01:15;;;;;;;;;2.75;1.50;;;;;19.15;74.53;101076.94;5125239;27;49383;-76
2022/10/22 17:03:41;;;;;;;;;6.75;3.25;;;;;19.09;75.20;101078.78;5135419;27;49773;-77
2022/10/22 17:06:07;;;;;;;;;4.25;3.25;;;;;18.90;75.40;101054.09;5113805;27;49929;-75
2022/10/22 17:08:36;;;;;;;;;4.25;3.00;;;;;18.98;75.64;101070.88;5131378;27;49655;-78
2022/10/22 17:11:11;;;;;;;;;2.50;2.50;;;;;18.87;76.37;101060.34;5129367;27;49613;-78
2022/10/22 17:13:38;;;;;;;;;4.00;4.00;;;;;18.93;76.39;101079.81;5134406;27;49568;-74
2022/10/22 17:16:06;;;;;;;;;4.00;4.00;;;;;18.90;76.92;101083.38;5145498;27;49990;-74
2022/10/22 17:18:33;;;;;;;;;4.25;3.75;;;;;18.85;77.11;101085.19;5127047;27;50046;-72
2022/10/22 17:20:58;;;;;;;;;3.00;3.00;;;;;18.69;77.20;101067.59;5122031;27;49845;-75
2022/10/22 17:23:27;;;;;;;;;5.00;5.00;;;;;18.38;77.55;101035.88;5119759;27;49780;-75
2022/10/22 17:25:58;;;;;;;;;3.75;3.75;;;;;18.60;77.64;101079.13;5128733;27;49545;-74
2022/10/22 17:28:24;;;;;;;;;5.75;5.00;;;;;18.68;77.88;101092.41;5112948;27;49805;-73
2022/10/22 17:30:49;;;;;;;;;6.00;6.00;;;;;18.70;78.14;101101.25;5113828;27;50023;-72
2022/10/22 17:33:14;;;;;;;;;5.50;4.75;;;;;18.53;78.76;101077.44;5114030;27;50202;-69
2022/10/22 17:35:40;;;;;;;;;10.25;6.25;;;;;18.65;78.96;101096.00;5113303;27;54359;-69
2022/10/22 17:38:06;;;;;;;;;7.75;6.75;;;;;18.62;79.54;101101.28;5095004;27;49727;-69
2022/10/22 17:40:34;;;;;;;;;6.25;6.25;;;;;18.56;79.95;101096.03;5113637;27;49766;-70
2022/10/22 17:42:59;;;;;;;;;6.00;6.00;;;;;18.40;80.30;101073.97;5113375;27;49968;-70
2022/10/22 17:45:25;;;;;;;;;3.00;3.00;;;;;18.52;80.64;101097.78;5117139;27;50811;-84
2022/10/22 17:47:51;;;;;;;;;5.00;5.00;;;;;18.50;79.75;101093.38;5091166;27;50023;-73
2022/10/22 17:50:19;;;;;;;;;8.00;8.00;;;;;18.49;80.63;101091.63;5109349;27;50317;-69
2022/10/22 17:52:44;;;;;;;;;5.50;5.50;;;;;18.33;81.45;101069.56;5108264;27;49619;-72
2022/10/22 17:55:14;;;;;;;;;7.00;7.00;;;;;18.27;81.59;101062.53;5107026;27;57473;-82
2022/10/22 17:57:39;;;;;;;;;10.00;8.75;;;;;18.38;81.68;101075.75;5101331;27;51119;-80
2022/10/22 18:00:05;;;;;;;;;7.00;7.00;;;;;18.25;81.39;101059.00;5103116;27;49880;-83
2022/10/22 18:02:31;;;;;;;;;9.50;8.25;;;;;18.24;81.35;101072.31;5114579;27;49958;-75
2022/10/22 18:04:56;;;;;;;;;9.25;8.00;;;;;18.06;81.45;101069.75;5111794;27;51788;-76
2022/10/22 18:07:22;;;;;;;;;10.50;9.75;;;;;17.29;82.02;100925.81;5094184;27;55068;-75
2022/10/22 18:09:47;;;;;;;;;5.50;5.50;;;;;18.22;81.93;101068.75;5112876;27;50055;-80
2022/10/22 18:12:16;;;;;;;;;12.00;10.50;;;;;18.07;82.52;101053.78;5110091;27;50192;-77
2022/10/22 18:14:43;;;;;;;;;8.25;8.25;;;;;17.81;82.65;101010.53;5091998;27;51459;-74
2022/10/22 18:17:08;;;;;;;;;7.50;7.50;;;;;18.31;82.83;101093.50;5112631;27;50222;-75
2022/10/22 18:19:33;;;;;;;;;7.00;7.00;;;;;17.56;83.10;100977.84;5110074;27;49830;-74
2022/10/22 18:21:59;;;;;;;;;8.50;7.00;;;;;17.38;83.60;100923.13;5103483;27;49823;-76
2022/10/22 18:24:25;;;;;;;;;7.00;7.00;;;;;17.33;83.65;100923.13;5112562;27;49599;-77
2022/10/22 18:26:51;;;;;;;;;9.00;9.00;;;;;17.19;83.52;100916.13;5112754;27;49907;-74
2022/10/22 18:29:17;;;;;;;;;8.75;8.75;;;;;18.19;84.06;101071.44;5099258;27;50111;-75
2022/10/22 18:31:44;;;;;;;;;9.75;8.75;;;;;17.58;84.38;101010.63;5081794;27;51175;-76
2022/10/22 18:34:09;;;;;;;;;9.25;9.25;;;;;18.12;85.00;101083.84;5086860;27;52472;-75
2022/10/22 18:36:36;;;;;;;;;13.25;9.50;;;;;17.52;85.13;100992.03;5112506;27;49806;-74
2022/10/22 18:39:02;;;;;;;;;9.50;8.25;;;;;17.09;84.88;100942.69;5086916;27;49977;-74
2022/10/22 18:41:29;;;;;;;;;12.50;10.25;;;;;17.32;84.72;100992.13;5111700;27;49947;-74
2022/10/22 18:44:00;;;;;;;;;12.00;9.25;;;;;17.91;85.17;101091.94;5111234;27;50654;-74
2022/10/22 18:46:26;;;;;;;;;8.75;8.75;;;;;16.96;85.21;100897.59;5112483;27;49580;-75
2022/10/22 18:48:53;;;;;;;;;10.50;10.25;;;;;17.19;84.41;100945.31;5092920;27;50026;-74
2022/10/22 18:51:19;;;;;;;;;12.00;9.50;;;;;18.08;84.95;101089.22;5111518;27;49732;-74
2022/10/22 18:53:48;;;;;;;;;9.00;9.00;;;;;16.52;84.63;100845.56;5111486;27;50946;-79
2022/10/22 18:56:14;;;;;;;;;12.25;11.50;;;;;18.09;85.25;101133.47;5111036;27;50161;-78
2022/10/22 18:58:41;;;;;;;;;9.75;8.00;;;;;18.05;84.98;101132.63;5087116;27;50001;-78
2022/10/22 19:01:08;;;;;;;;;8.00;8.00;;;;;17.79;85.47;101050.38;5086297;27;50696;-79
2022/10/22 19:03:33;;;;;;;;;8.50;8.50;;;;;17.74;85.89;101041.53;5095684;27;51490;-80
2022/10/22 19:05:58;;;;;;;;;8.25;8.00;;;;;16.81;85.62;100925.06;5112171;27;49721;-78
2022/10/22 19:08:24;;;;;;;;;13.75;10.25;;;;;17.84;86.45;101084.88;5081635;27;49616;-79
2022/10/22 19:10:49;;;;;;;;;10.00;8.25;;;;;17.93;86.22;101120.25;5106026;27;49894;-76
2022/10/22 19:13:18;;;;;;;;;7.75;7.50;;;;;17.64;86.53;101032.69;5125242;27;49740;-78
2022/10/22 19:15:43;;;;;;;;;11.00;10.00;;;;;17.11;85.92;100950.63;5104885;27;49988;-74
2022/10/22 19:18:09;;;;;;;;;14.50;11.25;;;;;16.87;86.57;100903.81;5118078;27;49413;-73
2022/10/22 19:20:36;;;;;;;;;8.50;6.50;;;;;17.25;86.91;101003.63;5114125;27;49478;-73
2022/10/22 19:23:02;;;;;;;;;14.25;11.50;;;;;17.58;86.89;101037.16;5115181;27;49543;-74
2022/10/22 19:25:28;;;;;;;;;10.25;9.75;;;;;17.83;87.48;101086.66;5113618;27;49710;-74
2022/10/22 19:27:53;;;;;;;;;10.50;10.50;;;;;17.81;87.85;101090.19;5114180;27;50564;-74
2022/10/22 19:30:19;;;;;;;;;8.75;8.75;;;;;17.14;87.72;100983.31;5115489;27;49704;-75
2022/10/22 19:32:45;;;;;;;;;11.25;10.25;;;;;17.60;88.15;101073.44;5110483;27;49823;-75
2022/10/22 19:35:11;;;;;;;;;10.00;10.00;;;;;17.06;88.10;100997.47;5114608;27;49530;-80
2022/10/22 19:37:36;;;;;;;;;9.00;9.00;;;;;17.12;88.31;101006.31;5097031;27;49554;-78
2022/10/22 19:40:04;;;;;;;;;17.25;10.75;;;;;16.59;88.74;100906.50;5115310;27;49715;-78
2022/10/22 19:42:30;;;;;;;;;9.00;8.00;;;;;17.28;88.96;101057.59;5113770;27;50285;-79
2022/10/22 19:44:56;;;;;;;;;12.50;11.00;;;;;17.29;89.04;101031.94;5120912;27;49716;-80
2022/10/22 19:47:21;;;;;;;;;11.50;11.50;;;;;17.12;89.29;101008.97;5086534;27;49871;-78
2022/10/22 19:53:22;;;;;;;;;10.00;10.00;;;;;15.97;89.41;100804.13;5019898;27;50881;-80
2022/10/22 19:56:45;;;;;;;;;13.00;11.75;;;;;17.53;89.92;101081.41;5100574;27;51189;-84
2022/10/22 19:59:11;;;;;;;;;13.25;13.25;;;;;16.76;90.53;100958.66;5055160;27;50124;-80
2022/10/22 20:01:37;;;;;;;;;12.25;12.25;;;;;17.16;90.56;101033.72;5098638;27;49384;-80
2022/10/22 20:07:39;;;;;;;;;15.00;11.75;;;;;15.92;90.58;100842.06;5021508;27;49785;-78
2022/10/22 20:10:14;;;;;;;;;13.25;13.25;;;;;17.08;91.15;101025.78;5095746;27;49540;-79
2022/10/22 20:12:40;;;;;;;;;15.00;12.75;;;;;16.48;91.46;100947.16;5111578;27;49658;-78
2022/10/22 20:15:52;;;;;;;;;10.25;10.25;;;;;17.13;91.47;101034.59;5120700;27;50802;-82
2022/10/22 20:19:14;;;;;;;;;14.50;13.00;;;;;17.46;91.43;101081.41;5092374;27;50254;-82
2022/10/22 20:21:44;;;;;;;;;11.50;10.50;;;;;17.49;92.02;101119.47;5074594;27;49969;-80
2022/10/22 20:24:44;;;;;;;;;12.00;12.00;;;;;17.06;91.97;101008.97;5090364;27;49578;-83
2022/10/22 20:27:24;;;;;;;;;18.25;11.75;;;;;16.21;91.96;100865.91;5115052;27;49894;-84
2022/10/22 20:30:00;;;;;;;;;14.25;14.25;;;;;17.46;92.36;101088.47;5106540;27;49822;-80
2022/10/22 20:32:26;;;;;;;;;12.25;12.00;;;;;17.44;92.41;101119.47;5117137;27;49872;-80
2022/10/22 20:34:52;;;;;;;;;12.75;10.50;;;;;17.39;92.41;101118.59;5099570;27;50145;-80
2022/10/22 20:37:17;;;;;;;;;18.25;14.75;;;;;16.27;92.26;100877.38;5100471;27;51463;-77
2022/10/22 20:39:43;;;;;;;;;17.25;17.25;;;;;17.38;92.50;101104.44;5090891;27;49806;-76
2022/10/22 20:42:08;;;;;;;;;16.50;14.75;;;;;17.06;92.86;101027.53;5102453;27;49362;-78
2022/10/22 20:44:34;;;;;;;;;14.25;12.75;;;;;17.40;92.95;101085.88;5096258;27;50584;-75
2022/10/22 20:46:59;;;;;;;;;16.50;14.75;;;;;17.05;92.75;101006.31;5116224;27;50599;-79
2022/10/22 20:49:25;;;;;;;;;14.25;13.50;;;;;16.52;93.04;100917.13;5081945;27;49797;-75
2022/10/22 20:51:51;;;;;;;;;12.75;11.75;;;;;17.15;93.02;101026.63;5113551;27;49261;-78
2022/10/22 20:54:18;;;;;;;;;13.25;12.75;;;;;17.40;92.95;101107.97;5101217;27;50034;-76
2022/10/22 20:56:46;;;;;;;;;13.75;12.75;;;;;15.85;92.79;100796.22;5103488;27;49967;-79
2022/10/22 20:59:12;;;;;;;;;12.75;12.00;;;;;17.46;93.06;101085.81;5082352;27;49948;-77
2022/10/22 21:01:40;;;;;;;;;12.00;12.00;;;;;17.50;92.57;101110.63;5088333;27;49840;-77
2022/10/22 21:04:06;;;;;;;;;10.00;10.00;;;;;16.05;92.10;100862.41;5102324;27;50090;-79
2022/10/22 21:06:43;;;;;;;;;;;;;;;;;;;;;
2022/10/22 21:09:11;;;;;;;;;9.75;8.25;;;;;17.10;91.69;100984.22;5119869;27;75101;-77
2022/10/22 21:11:38;;;;;;;;;8.75;8.75;;;;;17.66;91.77;101073.41;5114630;27;49708;-82
2022/10/22 21:14:05;;;;;;;;;12.00;10.75;;;;;17.68;91.48;101066.31;5114156;27;49960;-77
